Terminal Aerodrome Forecast
Issued by NWS

Home | Current Version | Previous Version | Text Only | Print | Product List | Glossary On
Versions: 1 2 3 4 5 6 7 8 9 10 11 12
000
FTUS42 KMLB 292328
TAFTIX
TAF
KTIX 292328Z 3000/3024 09011KT P6SM VCSH SCT023 BKN040
     FM300100 08010KT P6SM VCSH SCT030 BKN250
     FM301100 08011KT P6SM VCSH SCT025 BKN050 BKN250
     FM301800 13010KT P6SM VCSH SCT030 BKN050
      AMD NOT SKED 3001/3011=

USA.gov is the U.S. government's official web portal to all federal, state and local government web resources and services.